Time;durP1;ratioP1;P1;durP2;ratioP2;P2;SDS_P1;SDS_P2;PMS_P1;PMS_P2;Temp;Humidity;BMP_temperature;BMP_pressure;BME280_temperature;BME280_humidity;BME280_pressure;Samples;Min_cycle;Max_cycle;Signal;HPM_P1;HPM_P2
2022/05/04 00:00:14;;;;;;;10.63;8.17;;;;;;;5.74;84.07;101856.28;5013574;28;20429;-45
2022/05/04 00:02:42;;;;;;;11.93;8.43;;;;;;;5.68;84.68;101856.84;5014295;28;20464;-47
2022/05/04 00:05:09;;;;;;;7.70;7.10;;;;;;;5.65;84.86;101854.47;5014724;28;20440;-44
2022/05/04 00:07:38;;;;;;;7.97;7.47;;;;;;;5.59;84.83;101858.50;5014753;28;20461;-46
2022/05/04 00:10:07;;;;;;;8.03;7.23;;;;;;;5.59;85.34;101860.28;5014385;28;20798;-46
2022/05/04 00:12:35;;;;;;;9.17;6.80;;;;;;;5.58;85.75;101862.09;5013979;28;20468;-44
2022/05/04 00:15:05;;;;;;;8.47;7.30;;;;;;;5.57;86.05;101856.97;5014598;28;20434;-48
2022/05/04 00:17:32;;;;;;;7.17;6.67;;;;;;;5.55;86.29;101872.97;5014344;28;20469;-44
2022/05/04 00:20:00;;;;;;;8.60;7.83;;;;;;;5.53;86.30;101860.84;5014432;28;20436;-46
2022/05/04 00:22:28;;;;;;;13.63;8.70;;;;;;;5.51;86.73;101862.81;5013729;28;20468;-44
2022/05/04 00:24:56;;;;;;;9.37;8.50;;;;;;;5.46;86.61;101863.22;5014238;28;20811;-43
2022/05/04 00:27:24;;;;;;;8.73;7.83;;;;;;;5.47;86.74;101864.03;5004836;28;21013;-43
2022/05/04 00:29:51;;;;;;;9.03;8.20;;;;;;;5.44;87.15;101867.78;5013807;28;20518;-49
2022/05/04 00:32:21;;;;;;;11.77;8.83;;;;;;;5.43;86.81;101860.00;5013499;28;20903;-46
2022/05/04 00:34:49;;;;;;;13.17;8.67;;;;;;;5.40;87.51;101869.06;5014209;28;20425;-48
2022/05/04 00:37:17;;;;;;;8.83;8.00;;;;;;;5.41;87.39;101869.88;5013899;28;20818;-48
2022/05/04 00:39:44;;;;;;;7.80;7.03;;;;;;;5.37;87.83;101864.03;5014017;28;20445;-46
2022/05/04 00:42:14;;;;;;;8.70;7.83;;;;;;;5.35;87.63;101870.41;5013400;28;20465;-46
2022/05/04 00:44:44;;;;;;;8.27;7.77;;;;;;;5.31;87.63;101861.09;5013936;28;20977;-44
2022/05/04 00:47:12;;;;;;;8.53;7.77;;;;;;;5.26;87.43;101863.28;5005319;28;20480;-46
2022/05/04 00:49:43;;;;;;;11.83;9.00;;;;;;;5.21;87.99;101860.22;5011688;28;20795;-44
2022/05/04 00:52:13;;;;;;;10.07;7.80;;;;;;;5.18;88.53;101865.78;5013154;28;20464;-44
2022/05/04 00:54:43;;;;;;;8.10;7.20;;;;;;;5.16;88.32;101870.38;5013748;28;20440;-46
2022/05/04 00:57:14;;;;;;;10.73;7.27;;;;;;;5.11;88.32;101862.81;5013677;28;20461;-46
2022/05/04 00:59:41;;;;;;;8.27;7.07;;;;;;;5.07;88.27;101857.94;5013696;28;20425;-44
2022/05/04 01:02:09;;;;;;;10.47;7.13;;;;;;;5.03;88.54;101862.66;5012936;28;20468;-44
2022/05/04 01:04:37;;;;;;;11.50;7.97;;;;;;;5.01;88.63;101861.97;5013786;28;20752;-47
2022/05/04 01:07:06;;;;;;;14.17;8.80;;;;;;;4.98;88.43;101855.16;5013583;28;20826;-45
2022/05/04 01:09:33;;;;;;;7.97;7.37;;;;;;;4.96;88.44;101861.50;5013437;28;20429;-45
2022/05/04 01:12:01;;;;;;;11.00;7.40;;;;;;;4.92;88.69;101865.41;5012586;28;21005;-48
2022/05/04 01:14:29;;;;;;;7.90;7.10;;;;;;;4.90;88.75;101857.59;5013381;28;20798;-46
2022/05/04 01:16:56;;;;;;;13.10;9.90;;;;;;;4.88;88.68;101864.00;5013222;28;20457;-45
2022/05/04 01:19:24;;;;;;;8.53;7.70;;;;;;;4.88;88.93;101864.84;5013585;28;20448;-46
2022/05/04 01:21:53;;;;;;;8.43;7.47;;;;;;;4.85;88.94;101865.09;5012657;28;20465;-46
2022/05/04 01:24:20;;;;;;;9.20;7.33;;;;;;;4.85;88.99;101864.25;5013237;28;20435;-46
2022/05/04 01:26:48;;;;;;;8.63;7.77;;;;;;;4.85;89.50;101869.53;5012986;28;20469;-44
2022/05/04 01:29:16;;;;;;;10.13;7.60;;;;;;;4.81;89.24;101861.03;5013081;28;20523;-44
2022/05/04 01:31:43;;;;;;;11.37;7.93;;;;;;;4.80;89.81;101859.38;5012421;28;20469;-45
2022/05/04 01:34:11;;;;;;;7.60;6.87;;;;;;;4.79;89.96;101862.97;5013138;28;20437;-49
2022/05/04 01:36:39;;;;;;;7.93;7.43;;;;;;;4.76;90.31;101852.69;5013484;28;20464;-43
2022/05/04 01:39:08;;;;;;;10.00;7.30;;;;;;;4.74;89.89;101857.25;5012972;28;20428;-46
2022/05/04 01:44:22;;;;;;;10.83;7.07;;;;;;;4.68;90.15;101855.16;5013085;28;20429;-46
2022/05/04 01:46:49;;;;;;;9.23;7.23;;;;;;;4.64;90.20;101851.09;5007174;28;20468;-45
2022/05/04 01:49:17;;;;;;;8.60;7.43;;;;;;;4.60;90.45;101860.22;5007674;28;20436;-43
2022/05/04 01:51:44;;;;;;;8.70;7.80;;;;;;;4.58;90.52;101859.53;5012076;28;20477;-45
2022/05/04 01:54:13;;;;;;;8.17;7.00;;;;;;;4.56;90.62;101860.63;5012652;28;20437;-46
2022/05/04 01:56:41;;;;;;;9.23;7.33;;;;;;;4.55;90.97;101865.06;5012755;28;20453;-46
2022/05/04 01:59:08;;;;;;;8.43;7.70;;;;;;;4.53;90.60;101864.38;5012533;28;20443;-45
2022/05/04 02:01:37;;;;;;;9.27;8.40;;;;;;;4.52;90.75;101864.50;5011904;28;20463;-48
2022/05/04 02:04:06;;;;;;;8.33;6.37;;;;;;;4.49;90.60;101868.22;5012656;28;20931;-46
2022/05/04 02:06:34;;;;;;;11.00;7.40;;;;;;;4.47;90.71;101870.19;5012483;28;20461;-45
2022/05/04 02:09:02;;;;;;;8.27;7.63;;;;;;;4.45;90.81;101866.81;5012364;28;20815;-44
2022/05/04 02:11:32;;;;;;;8.07;7.30;;;;;;;4.44;90.72;101867.81;5011557;28;20994;-46
2022/05/04 02:14:00;;;;;;;10.33;8.10;;;;;;;4.41;90.67;101855.69;5012564;28;20460;-50
2022/05/04 02:16:28;;;;;;;11.90;8.27;;;;;;;4.39;90.78;101859.44;5012308;28;20457;-44
2022/05/04 02:18:56;;;;;;;8.80;8.03;;;;;;;4.36;90.80;101864.97;5012362;28;20780;-46
2022/05/04 02:21:24;;;;;;;8.77;7.90;;;;;;;4.35;91.23;101864.13;5011150;28;20473;-44
2022/05/04 02:23:52;;;;;;;8.63;7.30;;;;;;;4.35;90.78;101858.00;5011970;28;20447;-44
2022/05/04 02:26:20;;;;;;;7.20;6.60;;;;;;;4.31;90.71;101857.41;5012130;28;20465;-45
2022/05/04 02:28:49;;;;;;;7.23;6.67;;;;;;;4.30;90.96;101865.50;5012157;28;20436;-43
2022/05/04 02:31:17;;;;;;;8.30;7.60;;;;;;;4.28;91.44;101864.75;5011365;28;21293;-49
2022/05/04 02:33:47;;;;;;;12.63;7.90;;;;;;;4.26;91.38;101859.63;5012076;28;20436;-50
2022/05/04 02:39:00;;;;;;;10.07;8.00;;;;;;;4.15;90.92;101856.22;5012245;28;20433;-45
2022/05/04 02:41:28;;;;;;;9.63;7.40;;;;;;;4.12;91.04;101869.66;5011243;28;21000;-44
2022/05/04 02:43:57;;;;;;;10.70;8.50;;;;;;;4.08;91.28;101855.88;5012039;28;20919;-46
2022/05/04 02:46:29;;;;;;;11.03;7.73;;;;;;;4.05;91.13;101853.50;5008707;28;20460;-44
2022/05/04 02:48:57;;;;;;;7.73;7.00;;;;;;;4.04;91.28;101849.16;4996459;28;20452;-46
2022/05/04 02:51:25;;;;;;;8.40;7.70;;;;;;;3.99;91.39;101853.16;5011348;28;20475;-45
2022/05/04 02:53:53;;;;;;;10.70;7.80;;;;;;;3.98;91.58;101847.03;5012039;28;20437;-43
2022/05/04 02:56:21;;;;;;;9.00;7.50;;;;;;;3.95;91.55;101852.56;5011792;28;20463;-43
2022/05/04 02:58:51;;;;;;;7.87;7.20;;;;;;;3.94;91.81;101850.91;5011810;28;20433;-45
2022/05/04 03:04:07;;;;;;;8.67;8.00;;;;;;;3.88;91.92;101849.59;5003575;28;20913;-47
2022/05/04 03:06:36;;;;;;;10.93;7.50;;;;;;;3.88;92.23;101848.78;5008805;28;20456;-46
2022/05/04 03:09:04;;;;;;;9.60;8.30;;;;;;;3.87;92.29;101844.47;5011754;28;20429;-46
2022/05/04 03:14:18;;;;;;;10.73;8.30;;;;;;;3.85;92.60;101836.66;5011884;28;20435;-43
2022/05/04 03:16:48;;;;;;;8.23;7.50;;;;;;;3.85;92.95;101841.94;5011563;28;20449;-45
2022/05/04 03:19:16;;;;;;;9.43;8.63;;;;;;;3.83;92.91;101829.84;5011728;28;20432;-45
2022/05/04 03:21:44;;;;;;;9.17;8.47;;;;;;;3.82;93.03;101844.00;5010900;28;20465;-44
2022/05/04 03:24:12;;;;;;;11.43;8.20;;;;;;;3.80;92.99;101841.47;5011835;28;20490;-46
2022/05/04 03:26:39;;;;;;;8.80;8.00;;;;;;;3.80;93.11;101841.47;5011544;28;20465;-46
2022/05/04 03:29:07;;;;;;;14.67;8.03;;;;;;;3.80;93.30;101843.28;5011703;28;20437;-44
2022/05/04 03:31:35;;;;;;;12.33;8.73;;;;;;;3.81;93.33;101842.31;5010998;28;20468;-46
2022/05/04 03:34:05;;;;;;;7.97;7.30;;;;;;;3.81;93.36;101844.97;5013657;28;20472;-44
2022/05/04 03:36:35;;;;;;;8.93;8.13;;;;;;;3.83;93.38;101840.38;5015066;28;20464;-50
2022/05/04 03:39:03;;;;;;;11.03;9.40;;;;;;;3.85;94.00;101841.94;5015435;28;20439;-49
2022/05/04 03:41:32;;;;;;;8.40;7.60;;;;;;;3.88;93.88;101841.69;5014666;28;20472;-45
2022/05/04 03:44:00;;;;;;;9.10;8.20;;;;;;;3.91;94.01;101849.34;5015212;28;20451;-45
2022/05/04 03:46:29;;;;;;;15.30;9.93;;;;;;;3.96;94.33;101845.50;5011828;28;20456;-45
2022/05/04 03:48:59;;;;;;;11.53;9.07;;;;;;;3.98;94.29;101846.19;4998952;28;20847;-48
2022/05/04 03:51:28;;;;;;;11.23;7.87;;;;;;;4.03;94.13;101842.25;5014460;28;20465;-47
2022/05/04 03:53:56;;;;;;;8.13;7.50;;;;;;;4.09;94.53;101843.53;5014922;28;20483;-44
2022/05/04 03:56:23;;;;;;;11.00;7.10;;;;;;;4.16;94.73;101834.09;5014909;28;20453;-46
2022/05/04 03:58:51;;;;;;;7.87;7.07;;;;;;;4.22;94.60;101837.06;5014793;28;20439;-47
2022/05/04 04:01:20;;;;;;;7.47;6.77;;;;;;;4.32;94.99;101837.97;5014017;28;20468;-45
2022/05/04 04:03:48;;;;;;;11.97;7.60;;;;;;;4.44;94.95;101838.75;5014971;28;20495;-48
2022/05/04 04:06:16;;;;;;;8.90;8.13;;;;;;;4.57;94.99;101843.81;5014727;28;20458;-49
2022/05/04 04:08:50;;;;;;;8.70;7.80;;;;;;;4.75;94.85;101842.25;5014565;28;20441;-43
2022/05/04 04:11:18;;;;;;;8.80;8.00;;;;;;;4.88;94.62;101837.56;5014001;28;20473;-43
2022/05/04 04:13:46;;;;;;;10.93;7.60;;;;;;;5.02;94.60;101835.38;5014407;28;21009;-48
2022/05/04 04:16:14;;;;;;;9.20;7.90;;;;;;;5.19;94.52;101841.84;5014389;28;20818;-44
2022/05/04 04:18:42;;;;;;;8.43;7.63;;;;;;;5.37;94.54;101834.94;5014651;28;20459;-43
2022/05/04 04:23:56;;;;;;;7.90;7.50;;;;;;;5.70;93.31;101833.72;5014417;28;20799;-44
2022/05/04 04:26:24;;;;;;;13.33;8.43;;;;;;;6.01;93.65;101831.78;5014000;28;20496;-47
2022/05/04 04:28:51;;;;;;;8.80;6.60;;;;;;;6.51;94.24;101843.03;5014647;28;20441;-49
2022/05/04 04:31:19;;;;;;;7.13;6.63;;;;;;;6.98;93.72;101849.97;5013622;28;20836;-44
2022/05/04 04:33:47;;;;;;;7.83;7.00;;;;;;;7.33;91.56;101846.56;5014093;28;20473;-46
2022/05/04 04:36:14;;;;;;;8.80;6.23;;;;;;;7.70;88.65;101843.81;5014114;28;20835;-44
2022/05/04 04:38:42;;;;;;;10.77;7.17;;;;;;;8.09;84.12;101849.66;5014014;28;20475;-46
2022/05/04 04:41:11;;;;;;;9.00;7.13;;;;;;;8.69;85.36;101848.75;5013590;28;20468;-50
2022/05/04 04:43:38;;;;;;;7.40;6.67;;;;;;;9.33;82.64;101847.41;5014141;28;20441;-48
2022/05/04 04:46:06;;;;;;;7.20;6.50;;;;;;;10.06;80.55;101851.03;5010225;28;20826;-46
2022/05/04 04:48:34;;;;;;;6.97;6.27;;;;;;;10.76;79.10;101854.81;5005757;28;20433;-46
2022/05/04 04:51:01;;;;;;;6.60;6.13;;;;;;;11.57;76.24;101854.47;5013131;28;20540;-45
2022/05/04 04:53:29;;;;;;;10.33;6.50;;;;;;;12.14;72.80;101854.94;5013600;28;20476;-45
2022/05/04 04:55:56;;;;;;;7.77;5.80;;;;;;;12.90;70.69;101856.53;5013846;28;20459;-48
2022/05/04 04:58:26;;;;;;;5.57;5.00;;;;;;;13.36;66.98;101860.69;5013892;28;20608;-45
2022/05/04 05:00:53;;;;;;;7.93;5.83;;;;;;;13.96;66.28;101854.94;5013022;28;20433;-47
2022/05/04 05:03:21;;;;;;;6.73;6.03;;;;;;;14.65;64.34;101852.47;5013644;28;20451;-50
2022/05/04 05:05:49;;;;;;;9.60;5.67;;;;;;;15.29;61.25;101853.03;5013399;28;20464;-44
2022/05/04 05:08:17;;;;;;;6.53;6.03;;;;;;;15.77;57.61;101857.34;5013768;28;20433;-49
2022/05/04 05:10:44;;;;;;;5.80;5.40;;;;;;;16.17;53.96;101852.00;5012836;28;20435;-48
2022/05/04 05:13:12;;;;;;;6.03;5.57;;;;;;;16.79;54.18;101854.28;5013418;28;20473;-46
2022/05/04 05:18:26;;;;;;;6.33;5.83;;;;;;;17.57;50.77;101850.50;5013185;28;20432;-46
2022/05/04 05:20:54;;;;;;;6.77;5.60;;;;;;;18.00;49.34;101837.16;5012763;28;20440;-45
2022/05/04 05:23:23;;;;;;;6.30;5.70;;;;;;;17.37;48.16;101850.56;5013419;28;20995;-47
2022/05/04 05:25:51;;;;;;;11.50;5.47;;;;;;;17.60;50.00;101845.50;5013213;28;20895;-46
2022/05/04 05:28:19;;;;;;;6.13;5.37;;;;;;;18.19;49.52;101847.78;5013233;28;20552;-46
2022/05/04 05:30:48;;;;;;;6.67;5.90;;;;;;;18.45;48.53;101845.94;5012475;28;20933;-47
2022/05/04 05:33:15;;;;;;;7.37;5.40;;;;;;;18.83;47.74;101854.72;5013186;28;20477;-48
2022/05/04 05:35:43;;;;;;;5.80;5.27;;;;;;;19.27;46.25;101842.78;5012841;28;20945;-49
2022/05/04 05:38:10;;;;;;;8.93;6.03;;;;;;;19.35;45.84;101842.47;5012920;28;20443;-51
2022/05/04 05:40:38;;;;;;;5.60;5.00;;;;;;;19.62;46.39;101842.97;5012802;28;20429;-44
2022/05/04 05:43:06;;;;;;;8.47;4.93;;;;;;;19.96;44.19;101849.53;5012377;28;20452;-48
2022/05/04 05:45:33;;;;;;;5.50;5.10;;;;;;;20.48;43.42;101842.47;5009488;28;20430;-48
2022/05/04 05:48:02;;;;;;;7.60;5.43;;;;;;;20.85;43.68;101839.28;5004748;28;20441;-47
2022/05/04 05:50:30;;;;;;;10.20;5.37;;;;;;;21.01;43.59;101853.16;5012570;28;20434;-48
2022/05/04 05:52:58;;;;;;;6.20;5.03;;;;;;;21.13;42.23;101845.84;5012351;28;20474;-46
2022/05/04 05:55:25;;;;;;;7.83;5.27;;;;;;;21.63;42.55;101851.47;5012738;28;20968;-45
2022/05/04 05:57:53;;;;;;;7.27;5.70;;;;;;;21.90;41.73;101850.66;5011752;28;20456;-47
2022/05/04 06:00:21;;;;;;;6.30;5.67;;;;;;;22.03;41.15;101846.81;5012569;28;20459;-46
2022/05/04 06:02:48;;;;;;;6.57;5.03;;;;;;;22.26;39.06;101843.09;5012062;28;20468;-47
2022/05/04 06:05:17;;;;;;;6.93;5.10;;;;;;;22.32;40.12;101839.41;5012574;28;20437;-49
2022/05/04 06:07:45;;;;;;;6.80;5.00;;;;;;;22.82;40.15;101839.38;5012434;28;20460;-46
2022/05/04 06:10:13;;;;;;;6.10;5.20;;;;;;;22.78;37.15;101832.78;5012154;28;20436;-48
2022/05/04 06:12:40;;;;;;;5.97;3.73;;;;;;;23.02;38.82;101840.47;5011755;28;20472;-49
2022/05/04 06:15:09;;;;;;;5.57;5.07;;;;;;;23.00;38.12;101839.88;5012459;28;20483;-47
2022/05/04 06:17:38;;;;;;;5.23;4.73;;;;;;;22.80;38.46;101833.34;5012284;28;20457;-45
2022/05/04 06:20:07;;;;;;;6.17;4.70;;;;;;;22.72;38.95;101833.78;5012221;28;20531;-49
2022/05/04 06:22:36;;;;;;;11.73;5.30;;;;;;;22.64;38.48;101835.00;5011557;28;20823;-48
2022/05/04 06:25:04;;;;;;;9.27;4.40;;;;;;;21.66;39.69;101840.94;5012047;28;20429;-50
2022/05/04 06:27:32;;;;;;;8.23;5.03;;;;;;;21.43;39.17;101836.44;5011957;28;20510;-44
2022/05/04 06:35:30;;;;;;;10.90;5.00;;;;;;;19.99;41.99;101835.53;5011904;28;20476;-46
2022/05/04 06:37:59;;;;;;;7.60;5.23;;;;;;;20.34;41.41;101839.16;5012270;28;20443;-46
2022/05/04 06:40:27;;;;;;;7.50;5.20;;;;;;;20.55;41.80;101843.19;5011720;28;20444;-48
2022/05/04 06:42:54;;;;;;;13.20;5.30;;;;;;;20.87;41.23;101839.88;5011512;28;20470;-47
2022/05/04 06:45:22;;;;;;;5.20;4.80;;;;;;;20.91;40.47;101837.50;5010048;28;20509;-45
2022/05/04 06:47:50;;;;;;;5.23;4.60;;;;;;;20.67;38.97;101839.41;5002812;28;20460;-50
2022/05/04 06:50:18;;;;;;;5.23;4.63;;;;;;;20.71;41.30;101843.28;5011569;28;20437;-48
2022/05/04 06:52:45;;;;;;;7.87;4.90;;;;;;;20.70;40.63;101846.22;5011466;28;21024;-50
2022/05/04 06:55:14;;;;;;;5.90;4.37;;;;;;;20.45;41.29;101842.94;5011934;28;20475;-45
2022/05/04 06:57:42;;;;;;;5.53;4.20;;;;;;;20.92;40.76;101842.69;5011884;28;20854;-47
2022/05/04 07:00:10;;;;;;;6.13;5.00;;;;;;;21.35;40.31;101841.44;5011789;28;20432;-45
2022/05/04 07:02:38;;;;;;;9.60;5.10;;;;;;;21.69;39.03;101842.34;5011224;28;20464;-47
2022/05/04 07:05:06;;;;;;;5.30;4.90;;;;;;;21.61;36.26;101849.00;5011694;28;20439;-50
2022/05/04 07:07:34;;;;;;;8.03;4.20;;;;;;;19.35;40.32;101850.59;5011823;28;20459;-47
2022/05/04 07:10:02;;;;;;;7.00;4.83;;;;;;;18.62;42.43;101858.69;5015720;28;20436;-45
2022/05/04 07:12:31;;;;;;;10.33;4.70;;;;;;;18.15;43.53;101857.41;5015043;28;20463;-50
2022/05/04 07:14:59;;;;;;;5.00;4.63;;;;;;;17.93;43.50;101863.34;5015509;28;20480;-44
2022/05/04 07:17:27;;;;;;;6.53;4.00;;;;;;;18.39;43.76;101849.50;5015418;28;20462;-45
2022/05/04 07:19:55;;;;;;;4.43;4.03;;;;;;;17.94;43.44;101867.72;5015671;28;20478;-45
2022/05/04 07:22:24;;;;;;;8.00;4.83;;;;;;;17.77;43.21;101853.91;5014852;28;20534;-47
2022/05/04 07:24:52;;;;;;;4.00;3.70;;;;;;;17.69;42.81;101860.41;5015496;28;20435;-49
2022/05/04 07:27:20;;;;;;;5.10;4.30;;;;;;;16.99;43.81;101872.03;5015259;28;20470;-48
2022/05/04 07:29:48;;;;;;;6.33;4.30;;;;;;;16.42;44.28;101869.22;5015258;28;20429;-48
2022/05/04 07:32:17;;;;;;;4.33;3.70;;;;;;;16.01;44.76;101864.81;5014736;28;20831;-49
2022/05/04 07:34:44;;;;;;;4.87;4.40;;;;;;;15.72;44.18;101861.66;5015022;28;20982;-47
2022/05/04 07:37:13;;;;;;;8.23;4.27;;;;;;;15.86;44.49;101860.69;5017118;22;20482;-52
2022/05/04 07:42:26;;;;;;;3.40;3.20;;;;;;;15.60;43.48;101861.44;4981642;28;20549;-53
2022/05/04 07:45:01;;;;;;;4.37;4.00;;;;;;;15.83;45.16;101866.47;4976654;28;20433;-51
2022/05/04 07:47:30;;;;;;;4.00;3.20;;;;;;;15.93;45.08;101864.19;4967490;28;20845;-54
2022/05/04 07:49:58;;;;;;;5.43;4.03;;;;;;;16.09;44.03;101869.19;4957061;29;20928;-49
2022/05/04 07:52:27;;;;;;;5.77;3.43;;;;;;;16.07;43.13;101863.19;4984540;28;20882;-52
2022/05/04 07:54:54;;;;;;;5.33;3.57;;;;;;;15.36;43.32;101861.94;4995607;28;20499;-53
2022/05/04 07:57:23;;;;;;;3.70;3.40;;;;;;;14.79;45.69;101867.63;4995547;28;20458;-49
2022/05/04 08:05:19;;;;;;;5.77;3.80;;;;;;;14.69;45.73;101870.69;4995595;28;20434;-54
2022/05/04 08:07:46;;;;;;;5.80;4.10;;;;;;;14.88;46.43;101869.13;4996521;28;20457;-50
2022/05/04 08:10:14;;;;;;;5.00;3.40;;;;;;;15.22;46.00;101866.44;4995859;28;20433;-49
2022/05/04 08:12:42;;;;;;;3.90;3.50;;;;;;;16.15;44.87;101867.53;4995355;28;20472;-50
2022/05/04 08:15:10;;;;;;;4.40;2.90;;;;;;;15.66;44.33;101868.69;4995028;28;20473;-50
2022/05/04 08:17:39;;;;;;;4.07;3.77;;;;;;;15.89;45.31;101862.94;4994843;28;20457;-50
2022/05/04 08:20:08;;;;;;;5.53;3.80;;;;;;;15.58;47.05;101871.56;4994235;28;20521;-49
2022/05/04 08:22:35;;;;;;;6.40;4.07;;;;;;;15.50;47.01;101863.69;4994493;28;20466;-56
2022/05/04 08:25:03;;;;;;;4.80;3.47;;;;;;;15.08;46.48;101875.47;4995275;28;20431;-55
2022/05/04 08:27:32;;;;;;;9.70;4.30;;;;;;;14.40;47.69;101873.53;4995163;28;20458;-51
2022/05/04 08:30:00;;;;;;;3.70;3.50;;;;;;;14.41;47.81;101867.16;4995192;28;20476;-53
2022/05/04 08:32:29;;;;;;;4.03;3.40;;;;;;;15.06;46.85;101861.38;4994604;28;20458;-48
2022/05/04 08:34:58;;;;;;;3.40;3.17;;;;;;;15.20;46.94;101863.09;4995458;28;20480;-53
2022/05/04 08:37:28;;;;;;;4.83;3.90;;;;;;;14.95;46.19;101876.22;4995088;28;21013;-48
2022/05/04 08:39:56;;;;;;;5.53;4.13;;;;;;;14.67;46.40;101869.19;4994814;28;20434;-52
2022/05/04 08:42:24;;;;;;;6.20;4.13;;;;;;;14.35;47.71;101878.66;4994141;28;20462;-51
2022/05/04 08:44:55;;;;;;;3.83;3.30;;;;;;;14.22;47.75;101870.44;4995021;28;20426;-51
2022/05/04 08:47:23;;;;;;;3.37;3.07;;;;;;;14.33;46.47;101873.50;5002960;28;20549;-50
2022/05/04 08:49:51;;;;;;;4.50;3.87;;;;;;;14.19;46.78;101876.19;5014279;28;20429;-51
2022/05/04 08:52:21;;;;;;;3.47;3.17;;;;;;;14.37;47.20;101873.91;5013963;28;20476;-50
2022/05/04 08:54:50;;;;;;;6.60;3.47;;;;;;;14.95;46.44;101856.56;5014688;28;20796;-54
2022/05/04 08:57:18;;;;;;;5.63;3.50;;;;;;;14.71;45.52;101865.94;5014156;28;20906;-55
2022/05/04 08:59:45;;;;;;;4.03;3.60;;;;;;;14.24;46.38;101874.63;5014521;28;20433;-53
2022/05/04 09:02:13;;;;;;;6.30;3.83;;;;;;;14.42;47.45;101874.19;5013392;28;20997;-53
2022/05/04 09:04:42;;;;;;;7.23;3.73;;;;;;;14.36;49.37;101870.44;5014194;28;20799;-51
2022/05/04 09:07:25;;;;;;;6.43;3.40;;;;;;;14.66;49.01;101865.69;5013996;28;20492;-53
2022/05/04 09:09:53;;;;;;;5.47;4.17;;;;;;;14.90;48.66;101867.09;5013861;28;20880;-50
2022/05/04 09:12:22;;;;;;;10.40;4.30;;;;;;;15.81;47.46;101866.66;5013282;28;20457;-54
2022/05/04 09:14:50;;;;;;;4.83;3.70;;;;;;;16.27;46.14;101863.22;5013494;28;20433;-51
2022/05/04 09:17:19;;;;;;;4.13;3.37;;;;;;;16.15;45.65;101870.25;5013472;28;20528;-52
2022/05/04 09:20:45;;;;;;;3.67;3.33;;;;;;;15.96;45.61;101866.47;5013509;28;20568;-54
2022/05/04 09:22:50;;;;;;;8.27;4.17;;;;;;;15.94;44.60;101858.63;5012775;28;20867;-50
2022/05/04 09:25:18;;;;;;;3.90;3.50;;;;;;;15.87;42.38;101865.84;5013561;28;20435;-53
2022/05/04 09:27:48;;;;;;;6.67;3.50;;;;;;;15.40;44.33;101874.78;5013258;28;20463;-56
2022/05/04 09:30:16;;;;;;;7.10;3.00;;;;;;;15.13;44.82;101875.69;5012909;28;20440;-49
2022/05/04 09:32:44;;;;;;;7.40;3.80;;;;;;;14.95;47.24;101868.16;5012489;28;20472;-49
2022/05/04 09:35:13;;;;;;;7.10;3.03;;;;;;;15.56;45.82;101873.59;5013197;28;20443;-49
2022/05/04 09:46:05;;;;;;;3.27;2.97;;;;;;;16.90;42.24;101873.34;5006558;28;20977;-54
2022/05/04 09:48:36;;;;;;;5.23;3.70;;;;;;;17.17;41.64;101871.41;5004643;28;20524;-54
2022/05/04 09:51:05;;;;;;;5.63;3.47;;;;;;;17.41;41.71;101864.47;5012213;28;20826;-53
2022/05/04 09:53:34;;;;;;;3.77;3.10;;;;;;;17.21;38.90;101859.13;5012689;28;20934;-52
2022/05/04 09:56:03;;;;;;;5.43;3.70;;;;;;;17.97;40.40;101870.81;5012715;28;20484;-53
2022/05/04 09:58:32;;;;;;;4.40;3.50;;;;;;;17.95;38.97;101866.69;5012888;28;20427;-51
2022/05/04 10:01:00;;;;;;;3.27;3.07;;;;;;;16.90;41.28;101870.66;5012104;28;20428;-53
2022/05/04 10:03:29;;;;;;;5.50;3.90;;;;;;;16.44;40.27;101869.81;5012725;28;20457;-54
2022/05/04 10:06:00;;;;;;;5.50;3.47;;;;;;;16.33;42.00;101865.06;5012402;28;20452;-52
2022/05/04 10:08:28;;;;;;;6.30;3.90;;;;;;;16.57;41.69;101862.63;5013034;28;20420;-50
2022/05/04 10:10:56;;;;;;;7.27;4.50;;;;;;;16.93;40.09;101859.44;5011950;28;20433;-52
2022/05/04 10:13:26;;;;;;;4.40;3.40;;;;;;;17.37;39.46;101857.84;5012463;28;20443;-49
2022/05/04 10:15:58;;;;;;;3.17;2.97;;;;;;;17.28;38.66;101859.94;5012270;28;20476;-54
2022/05/04 10:18:29;;;;;;;3.30;2.97;;;;;;;16.56;42.17;101855.56;5012391;28;20429;-48
2022/05/04 10:21:02;;;;;;;3.00;2.90;;;;;;;15.38;43.32;101865.28;5011835;28;20432;-53
2022/05/04 10:23:35;;;;;;;3.40;3.17;;;;;;;15.04;45.24;101862.63;5012353;28;20954;-53
2022/05/04 10:26:05;;;;;;;4.17;3.43;;;;;;;15.31;45.47;101862.53;5012293;28;20977;-51
2022/05/04 10:28:38;;;;;;;3.20;2.93;;;;;;;15.91;43.11;101860.91;5012301;28;20772;-50
2022/05/04 10:31:10;;;;;;;11.23;5.23;;;;;;;16.79;42.05;101863.19;5011568;28;20523;-53
2022/05/04 10:33:38;;;;;;;3.37;3.03;;;;;;;17.33;42.92;101864.69;5012160;28;20421;-52
2022/05/04 10:36:30;;;;;;;6.00;3.63;;;;;;;17.14;41.32;101863.75;5012014;28;20483;-50
2022/05/04 10:39:02;;;;;;;3.30;2.60;;;;;;;16.67;41.97;101866.72;5012184;28;20425;-51
2022/05/04 10:41:37;;;;;;;3.77;3.47;;;;;;;15.77;41.43;101865.41;5011401;28;20460;-53
2022/05/04 10:44:10;;;;;;;5.47;4.00;;;;;;;16.12;42.82;101855.34;5011678;28;20451;-50
2022/05/04 10:46:40;;;;;;;3.87;3.50;;;;;;;16.29;42.41;101858.44;5012137;28;20472;-49
2022/05/04 10:49:13;;;;;;;5.30;3.40;;;;;;;16.60;41.67;101858.66;5012093;28;20468;-50
2022/05/04 10:51:43;;;;;;;3.23;3.03;;;;;;;16.12;42.02;101859.88;5011405;28;20472;-50
2022/05/04 10:54:15;;;;;;;3.50;3.13;;;;;;;15.54;42.18;101856.88;5012008;28;20776;-52
2022/05/04 10:56:44;;;;;;;7.20;3.50;;;;;;;15.01;43.25;101855.78;5012041;28;20480;-54
2022/05/04 10:59:25;;;;;;;5.63;3.50;;;;;;;15.40;44.44;101858.66;5012055;28;20429;-49
2022/05/04 11:01:56;;;;;;;4.77;4.10;;;;;;;15.63;44.43;101855.66;5011362;28;20465;-53
2022/05/04 11:04:25;;;;;;;3.23;2.93;;;;;;;15.72;43.38;101856.28;5011779;28;20437;-50
2022/05/04 11:07:06;;;;;;;3.93;3.50;;;;;;;15.23;44.62;101851.94;5011736;28;20457;-51
2022/05/04 11:09:38;;;;;;;4.90;3.30;;;;;;;15.36;44.77;101859.25;5012110;28;20436;-54
2022/05/04 11:12:07;;;;;;;4.60;3.33;;;;;;;15.13;44.67;101856.88;5011163;28;20551;-52
2022/05/04 11:14:37;;;;;;;3.43;3.07;;;;;;;14.96;43.50;101858.25;5011771;28;20956;-49
2022/05/04 11:17:10;;;;;;;3.10;2.80;;;;;;;15.07;44.14;101856.84;5011847;28;20485;-54
2022/05/04 11:19:43;;;;;;;3.77;3.50;;;;;;;15.31;43.24;101853.66;5012146;28;20452;-54
2022/05/04 11:22:11;;;;;;;3.40;3.07;;;;;;;15.26;43.87;101854.22;5011159;28;20469;-50
2022/05/04 11:25:00;;;;;;;4.63;3.77;;;;;;;14.63;45.40;101858.03;5012023;28;20437;-50
2022/05/04 11:27:27;;;;;;;4.80;3.13;;;;;;;14.29;46.08;101860.63;5012027;28;20460;-51
2022/05/04 11:29:59;;;;;;;4.43;3.10;;;;;;;14.21;46.07;101847.34;5012125;28;20437;-54
2022/05/04 11:32:29;;;;;;;3.40;3.10;;;;;;;14.29;46.93;101844.50;5011320;28;20472;-50
2022/05/04 11:34:57;;;;;;;4.67;3.17;;;;;;;14.65;46.92;101853.28;5012412;28;20531;-53
2022/05/04 11:37:24;;;;;;;4.27;3.20;;;;;;;14.93;45.10;101862.13;5011908;28;20477;-49
2022/05/04 11:39:52;;;;;;;4.70;3.40;;;;;;;14.73;44.63;101849.59;5012294;28;20440;-51
2022/05/04 11:42:23;;;;;;;6.30;4.13;;;;;;;15.21;44.02;101845.94;5011356;28;20469;-53
2022/05/04 11:44:54;;;;;;;3.67;3.37;;;;;;;15.53;42.60;101851.69;5011845;28;20977;-49
2022/05/04 11:47:23;;;;;;;4.63;3.60;;;;;;;15.02;43.31;101856.63;5011653;28;20484;-49
2022/05/04 11:49:54;;;;;;;4.60;3.77;;;;;;;14.83;44.24;101850.09;5011600;28;20968;-49
2022/05/04 11:52:22;;;;;;;8.53;4.27;;;;;;;14.62;45.48;101839.44;5011014;28;20460;-53
2022/05/04 11:54:50;;;;;;;3.63;3.30;;;;;;;14.40;45.92;101846.69;5012354;28;20444;-49
2022/05/04 11:57:19;;;;;;;6.50;3.17;;;;;;;14.38;45.09;101844.22;5015306;28;20480;-51
2022/05/04 11:59:50;;;;;;;5.43;3.07;;;;;;;14.12;46.14;101837.78;5015677;28;20440;-50
2022/05/04 12:02:19;;;;;;;4.63;4.23;;;;;;;13.73;46.74;101836.38;5014839;28;20469;-52
2022/05/04 12:04:48;;;;;;;3.70;3.37;;;;;;;13.49;48.55;101839.41;5015420;28;20429;-52
2022/05/04 12:07:16;;;;;;;4.43;3.13;;;;;;;13.66;49.08;101845.34;5015861;28;20966;-50
2022/05/04 12:09:44;;;;;;;3.03;2.83;;;;;;;13.65;47.08;101833.78;5016211;28;20959;-51
2022/05/04 12:12:12;;;;;;;4.10;3.70;;;;;;;13.91;47.24;101840.47;5015417;28;20468;-49